Mills, NE

7:22 PM CDT on July 01, 2015 (GMT -0500)
KNESPRIN2 | | Change Station
CLOSE
Current Station
Personal Weather Station
Location: Springview, NE
Elevation: 2060 ft
Nearby Weather Stations

Elev 2060 ft 42.74 °N, 99.74 °W | Updated 8 minutes ago

Clear
Clear
80.1 °F
Feels Like 83 °F
N
8.0
Wind Variable Wind from East
Gusts 11.0 mph

Today
High -- | Low -- °F
--% Chance of Precip.
Yesterday
High -- | Low -- °F
Precip. -- in
6:02 AM 9:20 PM
Full, 100% visible
Pressure 29.93 in
Visibility 10.0 miles
Clouds Clear
Heat Index 83 °F
Dew Point 67 °F
Humidity 65%
Rainfall 0.00 in
Snow Depth Not available.
UV 2 out of 12
Pollen 4.80 out of 12
Air Quality Not available.
Flu Activity Not available.
METAR KANW 020015Z AUTO 36010KT 10SM CLR 29/18 A2993 RMK AO2 LTG DSNT SE T02860184

More Conditions Fewer Conditions

Pressure 29.93 in
Visibility 10.0 miles
Clouds Clear
Heat Index 83 °F
Dew Point 67 °F
Humidity 65%
Rainfall 0.00 in
Snow Depth Not available.
UV 2 out of 12
Pollen 4.80 out of 12
Air Quality Not available.
Flu Activity Not available.
METAR KANW 020015Z AUTO 36010KT 10SM CLR 29/18 A2993 RMK AO2 LTG DSNT SE T02860184

More Conditions Fewer Conditions

10-Day Weather Forecast

×

Almanac

Astronomy

Jul. 01, 2015 Rise Set
Actual Time
Civil Twilight
Nautical Twilight
Astronomical Twilight
Moon
Length of Visible Light
Length of Day
Tomorrow will be .
, % of the Moon is Illuminated

Today's Extremes

State Highs State Lows

Community

WunderPhotos

Upload Photos

1,834,354 photos uploaded!

WunderBlogs® & News

Nearby

Air Quality

  Air Quality AQ Index Pollutant
Not available.

Snow Depth

Station Depth Elevation

Earthquake Activity

City Distance Mag. Time & Date
Minimum magnitude displayed is 2.5.

Coastal Water Temperatures

Place Temperature

Stations

Nearby Weather Stations

Station Location Temp. Windchill Dew Point Humidity Wind Precip. Elev Updated Type